Time;durP1;ratioP1;P1;durP2;ratioP2;P2;SDS_P1;SDS_P2;PMS_P1;PMS_P2;Temp;Humidity;BMP_temperature;BMP_pressure;BME280_temperature;BME280_humidity;BME280_pressure;Samples;Min_cycle;Max_cycle;Signal;HPM_P1;HPM_P2
2022/03/24 05:52:56;;;;;;;;;;;;;;;4.30;53.08;99037.72;4875518;29;19932;-75
2022/03/24 06:15:29;;;;;;;;;;;;;;;4.16;53.35;99048.81;4918874;29;20322;-73
2022/03/24 06:17:57;;;;;;;;;;;;;;;4.04;53.86;99058.78;4956565;28;19934;-73
2022/03/24 06:20:25;;;;;;;;;;;;;;;4.10;54.08;99049.78;4921855;28;19927;-73
2022/03/24 06:22:54;;;;;;;;;;;;;;;4.31;53.25;99053.63;4933027;29;20030;-73
2022/03/24 06:25:22;;;;;;;;;;;;;;;4.43;52.71;99057.09;4945407;28;19926;-73
2022/03/24 06:27:51;;;;;;;;;;;;;;;4.39;52.90;99064.00;4965573;28;20008;-74
2022/03/24 06:30:20;;;;;;;;;;;;;;;4.64;52.42;99063.63;4961949;28;19926;-73
2022/03/24 06:32:48;;;;;;;;;;;;;;;4.74;52.24;99065.66;4991333;28;20733;-73
2022/03/24 06:35:17;;;;;;;;;;;;;;;4.89;51.79;99059.69;5002836;28;20324;-73
2022/03/24 06:37:46;;;;;;;;;;;;;;;4.89;51.96;99060.50;5010471;28;19961;-73
2022/03/24 06:40:14;;;;;;;;;;;;;;;4.85;51.93;99066.66;5017480;28;20327;-73
2022/03/24 06:42:43;;;;;;;;;;;;;;;4.93;51.54;99063.53;5078637;28;19974;-73
2022/03/24 06:45:11;;;;;;;;;;;;;;;4.99;51.75;99055.25;5046512;28;20352;-73
2022/03/24 06:47:41;;;;;;;;;;;;;;;4.97;51.88;99064.66;5068096;28;19974;-73
2022/03/24 06:50:11;;;;;;;;;;;;;;;5.12;51.27;99064.91;5072606;27;19940;-73
2022/03/24 06:52:39;;;;;;;;;;;;;;;5.06;51.74;99060.50;5154331;27;19923;-73
2022/03/24 06:55:07;;;;;;;;;;;;;;;5.19;51.27;99053.94;5107652;27;19938;-73
2022/03/24 06:57:36;;;;;;;;;;;;;;;5.18;51.73;99061.22;5116593;27;19923;-74
2022/03/24 07:00:04;;;;;;;;;;;;;;;4.45;53.59;99070.28;5116677;27;19927;-73
2022/03/24 07:02:32;;;;;;;;;;;;;;;4.71;53.19;99060.75;5126377;27;20009;-73
2022/03/24 07:05:02;;;;;;;;;;;;;;;4.72;53.16;99063.19;5132606;27;20346;-73
2022/03/24 07:07:30;;;;;;;;;;;;;;;4.89;53.16;99067.75;5109012;27;19927;-73
2022/03/24 07:10:00;;;;;;;;;;;;;;;5.02;52.23;99063.94;5110296;27;19964;-73
2022/03/24 07:12:29;;;;;;;;;;;;;;;5.03;52.15;99060.16;5116817;27;20419;-73
2022/03/24 07:14:57;;;;;;;;;;;;;;;5.23;51.65;99066.66;5112332;27;19928;-73
2022/03/24 07:17:25;;;;;;;;;;;;;;;5.63;50.73;99054.78;5112607;27;20376;-73
2022/03/24 07:19:53;;;;;;;;;;;;;;;5.83;50.46;99065.00;5117230;27;19934;-73
2022/03/24 07:22:22;;;;;;;;;;;;;;;6.06;49.61;99065.81;5112590;27;19927;-73
2022/03/24 07:24:50;;;;;;;;;;;;;;;5.92;49.59;99068.09;5115102;27;19959;-73
2022/03/24 07:27:19;;;;;;;;;;;;;;;5.84;49.69;99065.81;5130022;27;20357;-73
2022/03/24 07:29:47;;;;;;;;;;;;;;;5.81;49.84;99061.75;5118094;27;20398;-73
2022/03/24 07:32:16;;;;;;;;;;;;;;;5.84;49.73;99057.72;5108382;27;19924;-73
2022/03/24 07:34:44;;;;;;;;;;;;;;;6.00;49.33;99062.25;5115363;27;19930;-73
2022/03/24 07:37:12;;;;;;;;;;;;;;;6.34;49.20;99057.50;5099993;27;19923;-73
2022/03/24 07:39:41;;;;;;;;;;;;;;;6.54;48.24;99060.34;5111535;27;19923;-73
2022/03/24 07:42:10;;;;;;;;;;;;;;;6.83;48.36;99057.38;5110714;27;19923;-73
2022/03/24 07:44:38;;;;;;;;;;;;;;;7.19;47.39;99058.44;5127723;27;19923;-73
2022/03/24 07:47:06;;;;;;;;;;;;;;;7.23;46.49;99067.63;5129712;27;19927;-73
2022/03/24 07:49:39;;;;;;;;;;;;;;;7.35;46.47;99064.75;5114648;27;20362;-73
2022/03/24 07:52:10;;;;;;;;;;;;;;;7.61;46.66;99068.34;5112591;27;20335;-74
2022/03/24 07:54:45;;;;;;;;;;;;;;;7.75;45.61;99061.41;5116618;27;19948;-73
2022/03/24 07:57:14;;;;;;;;;;;;;;;7.73;45.00;99060.06;5132622;27;20002;-74
2022/03/24 07:59:41;;;;;;;;;;;;;;;7.78;45.10;99062.78;5116769;27;20446;-73
2022/03/24 08:02:09;;;;;;;;;;;;;;;7.52;45.68;99064.56;5115575;27;20373;-74
2022/03/24 08:04:37;;;;;;;;;;;;;;;7.80;44.85;99061.41;5111423;27;19924;-74
2022/03/24 08:07:06;;;;;;;;;;;;;;;8.11;44.88;99062.34;5110658;27;19927;-74
2022/03/24 08:12:29;;;;;;;;;;;;;;;8.76;43.23;99061.91;5117215;27;19953;-73
2022/03/24 08:14:57;;;;;;;;;;;;;;;8.74;43.35;99056.78;5114068;27;19923;-73
2022/03/24 08:17:28;;;;;;;;;;;;;;;8.88;43.46;99063.25;5129576;27;20364;-73
2022/03/24 08:19:56;;;;;;;;;;;;;;;9.00;42.94;99062.16;5136757;27;19923;-73
2022/03/24 08:22:25;;;;;;;;;;;;;;;9.25;42.29;99055.88;5119968;27;19934;-73
2022/03/24 08:24:53;;;;;;;;;;;;;;;9.32;42.50;99054.53;5121229;27;19927;-73
2022/03/24 08:27:23;;;;;;;;;;;;;;;9.57;41.93;99058.25;5110943;27;19938;-73
2022/03/24 08:29:52;;;;;;;;;;;;;;;9.78;41.45;99062.50;5121318;27;19927;-74
2022/03/24 08:32:20;;;;;;;;;;;;;;;9.71;41.48;99062.81;5091382;27;19974;-73
2022/03/24 08:34:49;;;;;;;;;;;;;;;9.76;41.86;99058.47;5139281;27;19930;-73
2022/03/24 08:37:18;;;;;;;;;;;;;;;9.81;41.90;99059.25;5117011;27;19923;-73
2022/03/24 08:39:46;;;;;;;;;;;;;;;10.00;41.71;99073.00;5139206;27;19927;-71
2022/03/24 08:42:15;;;;;;;;;;;;;;;10.05;41.09;99069.44;5115498;27;19953;-71
2022/03/24 08:44:43;;;;;;;;;;;;;;;10.36;40.43;99067.41;5131283;27;19958;-74
2022/03/24 08:47:13;;;;;;;;;;;;;;;10.53;40.45;99067.81;5111005;27;19973;-73
2022/03/24 08:49:43;;;;;;;;;;;;;;;10.03;40.96;99068.91;5099430;27;20024;-73
2022/03/24 08:52:12;;;;;;;;;;;;;;;9.96;41.09;99069.22;5122400;27;19923;-73
2022/03/24 08:54:40;;;;;;;;;;;;;;;10.27;40.92;99069.06;5116772;27;19924;-74
2022/03/24 08:57:11;;;;;;;;;;;;;;;10.71;40.43;99064.44;5117910;27;20426;-73
2022/03/24 08:59:39;;;;;;;;;;;;;;;10.40;40.52;99065.75;5128262;27;19923;-74
2022/03/24 09:02:08;;;;;;;;;;;;;;;10.32;41.08;99064.41;5121543;27;19924;-73
2022/03/24 09:04:39;;;;;;;;;;;;;;;10.51;40.73;99066.50;5118416;27;20018;-72
2022/03/24 09:07:26;;;;;;;;;;;;;;;10.62;40.82;99062.59;5115597;27;19930;-71
2022/03/24 09:09:54;;;;;;;;;;;;;;;10.83;39.97;99061.34;5116564;27;19949;-72
2022/03/24 09:12:23;;;;;;;;;;;;;;;10.96;39.86;99060.69;5106933;27;19923;-73
2022/03/24 09:14:51;;;;;;;;;;;;;;;11.35;39.18;99073.38;5105554;27;20399;-73
2022/03/24 09:17:19;;;;;;;;;;;;;;;11.25;39.10;99068.03;5116032;27;19931;-74
2022/03/24 09:19:50;;;;;;;;;;;;;;;11.13;39.21;99071.16;5116211;27;19930;-72
2022/03/24 09:22:18;;;;;;;;;;;;;;;11.32;39.09;99070.41;5111677;27;19923;-71
2022/03/24 09:24:46;;;;;;;;;;;;;;;11.44;38.77;99062.66;5112031;27;19927;-72
2022/03/24 09:27:15;;;;;;;;;;;;;;;11.36;38.40;99069.56;5127373;27;19930;-72
2022/03/24 09:29:43;;;;;;;;;;;;;;;11.64;38.40;99064.34;5120179;27;19976;-71
2022/03/24 09:32:13;;;;;;;;;;;;;;;11.76;38.22;99067.47;5119765;27;19930;-71
2022/03/24 09:34:41;;;;;;;;;;;;;;;12.12;38.65;99064.34;5116597;27;19923;-71
2022/03/24 09:37:17;;;;;;;;;;;;;;;12.49;36.82;99072.53;5119804;27;19930;-71
2022/03/24 09:39:45;;;;;;;;;;;;;;;12.16;37.57;99065.38;5116672;27;19923;-71
2022/03/24 09:42:13;;;;;;;;;;;;;;;12.49;37.00;99061.63;5117761;27;19923;-71
2022/03/24 09:44:42;;;;;;;;;;;;;;;12.83;36.09;99069.53;5111421;27;19931;-71
2022/03/24 09:47:14;;;;;;;;;;;;;;;13.17;35.85;99051.25;5114171;27;19924;-71
2022/03/24 09:49:43;;;;;;;;;;;;;;;12.84;35.74;99054.00;5118599;27;19923;-71
2022/03/24 09:52:12;;;;;;;;;;;;;;;13.20;35.45;99056.09;5120352;27;19929;-71
2022/03/24 09:54:45;;;;;;;;;;;;;;;13.42;35.35;99053.53;5100935;27;19924;-72
2022/03/24 09:57:14;;;;;;;;;;;;;;;13.65;34.61;99048.19;5111022;27;19930;-72
2022/03/24 09:59:43;;;;;;;;;;;;;;;13.50;34.12;99052.84;5105427;27;19930;-72
2022/03/24 10:02:11;;;;;;;;;;;;;;;13.24;34.90;99052.50;5119823;27;19923;-72
2022/03/24 10:04:47;;;;;;;;;;;;;;;13.23;35.14;99044.63;5112806;27;19923;-71
2022/03/24 10:07:16;;;;;;;;;;;;;;;13.35;34.96;99050.38;5114380;27;20025;-72
2022/03/24 10:09:47;;;;;;;;;;;;;;;13.39;35.13;99045.94;5116339;27;19923;-72
2022/03/24 10:12:19;;;;;;;;;;;;;;;13.62;34.56;99053.13;5091640;28;19931;-72
2022/03/24 10:14:56;;;;;;;;;;;;;;;13.92;34.27;99045.44;5111028;27;20390;-71
2022/03/24 10:17:25;;;;;;;;;;;;;;;13.81;33.77;99046.78;5110892;27;19927;-72
2022/03/24 10:19:57;;;;;;;;;;;;;;;13.89;34.05;99043.31;5093376;27;19933;-72
2022/03/24 10:22:25;;;;;;;;;;;;;;;14.04;33.60;99039.44;5115172;27;19927;-72
2022/03/24 10:24:54;;;;;;;;;;;;;;;13.83;33.94;99039.06;5102983;27;19923;-72
2022/03/24 10:27:23;;;;;;;;;;;;;;;13.76;34.13;99035.94;5097808;27;19931;-71
2022/03/24 10:29:55;;;;;;;;;;;;;;;13.85;33.97;99042.31;5099314;28;20453;-72
2022/03/24 10:32:27;;;;;;;;;;;;;;;14.18;33.62;99036.69;5112357;27;19963;-72
2022/03/24 10:35:20;;;;;;;;;;;;;;;14.05;33.00;99030.94;5109359;28;19931;-71
2022/03/24 10:37:49;;;;;;;;;;;;;;;13.85;33.52;99025.94;5099705;27;19935;-72
2022/03/24 10:40:18;;;;;;;;;;;;;;;14.52;33.22;99028.81;5111322;27;19930;-72
2022/03/24 10:42:49;;;;;;;;;;;;;;;14.76;32.18;99024.97;5112184;27;19935;-72
2022/03/24 10:45:18;;;;;;;;;;;;;;;14.46;32.50;99021.03;5097070;27;19923;-72
2022/03/24 10:47:50;;;;;;;;;;;;;;;14.91;31.92;99025.41;5105279;27;19959;-72
2022/03/24 10:50:44;;;;;;;;;;;;;;;14.81;32.20;99019.38;5111029;27;19928;-72
2022/03/24 10:53:13;;;;;;;;;;;;;;;14.96;32.11;99024.44;5094534;27;20023;-72
2022/03/24 10:55:47;;;;;;;;;;;;;;;15.24;31.54;99014.16;5091698;28;19924;-72
2022/03/24 10:58:18;;;;;;;;;;;;;;;14.96;31.78;99012.69;5108749;27;20346;-72
2022/03/24 11:00:47;;;;;;;;;;;;;;;14.94;31.84;99026.69;5088190;27;19923;-73
2022/03/24 11:03:15;;;;;;;;;;;;;;;15.01;31.80;99016.09;5115563;27;19931;-72
2022/03/24 11:05:43;;;;;;;;;;;;;;;14.49;32.35;99015.78;5108417;27;20449;-72
2022/03/24 11:08:12;;;;;;;;;;;;;;;14.53;32.75;99008.53;5110070;27;19924;-72
2022/03/24 11:10:49;;;;;;;;;;;;;;;14.72;32.74;99004.84;5097187;27;19933;-72
2022/03/24 11:13:26;;;;;;;;;;;;;;;14.98;31.78;99014.00;5109889;27;19930;-72
2022/03/24 11:15:54;;;;;;;;;;;;;;;14.94;32.09;99004.81;5111601;27;19930;-72
2022/03/24 11:18:23;;;;;;;;;;;;;;;14.67;32.53;99000.28;5093694;28;19946;-72
2022/03/24 11:20:51;;;;;;;;;;;;;;;15.12;31.64;98998.28;5127528;27;19923;-72
2022/03/24 11:23:34;;;;;;;;;;;;;;;15.11;31.72;98998.63;5095930;28;20385;-72
2022/03/24 11:26:05;;;;;;;;;;;;;;;15.44;31.01;98999.06;5104399;27;20052;-72
2022/03/24 11:28:36;;;;;;;;;;;;;;;15.77;31.28;99005.03;5103859;28;19930;-72
2022/03/24 11:31:08;;;;;;;;;;;;;;;15.85;31.09;99000.69;5113187;28;20010;-72
2022/03/24 11:33:41;;;;;;;;;;;;;;;15.42;30.38;98991.19;5129168;28;19931;-72
2022/03/24 11:36:10;;;;;;;;;;;;;;;15.42;30.81;98995.84;5110722;28;20377;-72
2022/03/24 11:38:39;;;;;;;;;;;;;;;15.24;30.83;98992.25;5105419;28;19924;-72
2022/03/24 11:41:22;;;;;;;;;;;;;;;15.35;31.06;98987.31;5112068;28;19927;-72
2022/03/24 11:43:55;;;;;;;;;;;;;;;15.80;30.74;98981.66;5092120;28;20009;-72
2022/03/24 11:46:30;;;;;;;;;;;;;;;16.10;29.97;98974.44;5105927;28;20004;-72
2022/03/24 11:49:18;;;;;;;;;;;;;;;16.34;29.79;98974.75;5089949;28;19924;-72
2022/03/24 11:51:47;;;;;;;;;;;;;;;15.94;29.39;98971.38;5088404;28;19924;-72
2022/03/24 11:54:24;;;;;;;;;;;;;;;15.86;30.03;98964.72;5102295;28;19923;-72
2022/03/24 11:57:07;;;;;;;;;;;;;;;15.86;29.72;98964.72;5121952;28;19930;-72
2022/03/24 11:59:36;;;;;;;;;;;;;;;15.99;30.13;98960.25;5096285;28;19930;-72
2022/03/24 12:02:15;;;;;;;;;;;;;;;16.42;28.70;98962.19;5105404;28;20385;-72
2022/03/24 12:04:44;;;;;;;;;;;;;;;16.29;28.39;98966.69;5104553;28;20034;-72
2022/03/24 12:07:15;;;;;;;;;;;;;;;16.34;28.22;98957.50;5110581;28;19924;-72
2022/03/24 12:09:53;;;;;;;;;;;;;;;16.05;28.19;98958.16;5114925;28;19927;-72
2022/03/24 12:12:22;;;;;;;;;;;;;;;16.44;28.15;98957.97;5101901;28;19927;-73
2022/03/24 12:14:54;;;;;;;;;;;;;;;16.60;27.54;98949.25;5114656;28;19978;-72
2022/03/24 12:17:23;;;;;;;;;;;;;;;16.44;27.48;98948.94;5094288;28;20425;-72
2022/03/24 12:19:53;;;;;;;;;;;;;;;16.55;27.55;98952.97;5085569;28;19923;-72
2022/03/24 12:22:38;;;;;;;;;;;;;;;16.68;26.93;98940.19;5110687;28;19923;-72
2022/03/24 12:25:30;;;;;;;;;;;;;;;16.57;26.54;98947.97;5122324;28;22559;-72
2022/03/24 12:27:59;;;;;;;;;;;;;;;16.54;26.36;98940.38;5110541;28;19988;-72
2022/03/24 12:30:41;;;;;;;;;;;;;;;16.40;25.69;98943.28;5118990;28;19927;-72
2022/03/24 12:33:11;;;;;;;;;;;;;;;16.82;24.58;98931.78;5122536;28;20292;-72
2022/03/24 12:35:41;;;;;;;;;;;;;;;16.70;23.59;98922.25;5101557;28;19927;-72
2022/03/24 12:38:22;;;;;;;;;;;;;;;16.91;24.47;98925.13;5104946;27;19923;-72
2022/03/24 12:41:11;;;;;;;;;;;;;;;17.11;25.07;98917.31;5105667;27;19962;-72
2022/03/24 12:44:07;;;;;;;;;;;;;;;16.82;24.65;98918.06;5089471;27;19931;-72
2022/03/24 12:46:38;;;;;;;;;;;;;;;16.59;24.88;98921.00;5099652;27;19931;-72
2022/03/24 12:49:07;;;;;;;;;;;;;;;16.70;24.31;98911.28;5098564;27;19935;-72
2022/03/24 12:51:36;;;;;;;;;;;;;;;16.79;24.15;98907.75;5110280;27;19924;-72
2022/03/24 12:54:09;;;;;;;;;;;;;;;16.70;24.08;98905.81;5102517;27;19930;-72
2022/03/24 12:56:37;;;;;;;;;;;;;;;16.89;22.28;98910.16;5109289;27;19923;-72
2022/03/24 12:59:07;;;;;;;;;;;;;;;16.90;22.87;98900.78;5101913;27;19923;-72
2022/03/24 13:01:37;;;;;;;;;;;;;;;16.85;22.98;98901.75;5104396;27;20443;-72
2022/03/24 13:04:06;;;;;;;;;;;;;;;17.01;23.09;98899.28;5102519;27;19969;-72
2022/03/24 13:06:34;;;;;;;;;;;;;;;16.86;23.53;98895.13;5114821;27;19934;-72
2022/03/24 13:09:16;;;;;;;;;;;;;;;17.04;24.16;98890.38;5130576;27;20350;-72
2022/03/24 13:11:49;;;;;;;;;;;;;;;17.28;24.27;98887.84;5110135;27;19931;-72
2022/03/24 13:14:19;;;;;;;;;;;;;;;17.40;22.92;98889.06;5114982;27;19927;-72
2022/03/24 13:17:10;;;;;;;;;;;;;;;17.18;23.62;98881.91;5101916;27;19924;-72
2022/03/24 13:19:40;;;;;;;;;;;;;;;17.01;22.51;98882.81;5102319;27;19923;-72
2022/03/24 13:22:10;;;;;;;;;;;;;;;17.13;22.55;98871.91;5106327;27;19931;-72
2022/03/24 13:24:39;;;;;;;;;;;;;;;17.14;22.44;98869.97;5101924;27;20450;-72
2022/03/24 13:27:08;;;;;;;;;;;;;;;16.89;22.20;98867.03;5118360;27;19968;-72
2022/03/24 13:29:39;;;;;;;;;;;;;;;16.79;21.50;98863.84;5100374;27;19923;-72
2022/03/24 13:32:16;;;;;;;;;;;;;;;16.91;21.74;98862.00;5111831;27;19932;-72
2022/03/24 13:34:48;;;;;;;;;;;;;;;16.94;21.97;98866.84;5103857;27;19923;-72
2022/03/24 13:37:17;;;;;;;;;;;;;;;16.94;21.99;98861.38;5102977;27;19923;-72
2022/03/24 13:39:46;;;;;;;;;;;;;;;17.35;22.85;98865.31;5114615;27;19923;-73
2022/03/24 13:42:14;;;;;;;;;;;;;;;17.58;21.59;98859.50;5086847;28;20392;-72
2022/03/24 13:44:45;;;;;;;;;;;;;;;17.61;21.58;98867.91;5117438;27;19944;-72
2022/03/24 13:47:17;;;;;;;;;;;;;;;17.35;22.22;98864.53;5113932;27;20450;-72
2022/03/24 13:49:47;;;;;;;;;;;;;;;17.51;21.03;98863.59;5095919;27;19957;-72
2022/03/24 13:52:35;;;;;;;;;;;;;;;17.40;21.88;98859.63;5105703;27;19923;-72
2022/03/24 13:55:05;;;;;;;;;;;;;;;17.42;21.80;98851.09;5106813;27;19924;-72
2022/03/24 13:57:33;;;;;;;;;;;;;;;17.77;21.75;98849.69;5110030;27;19931;-72
2022/03/24 14:00:02;;;;;;;;;;;;;;;17.68;20.37;98848.94;5108724;27;19927;-72
2022/03/24 14:02:32;;;;;;;;;;;;;;;17.72;21.55;98851.81;5133573;27;20328;-72
2022/03/24 14:05:04;;;;;;;;;;;;;;;17.25;20.86;98850.03;5106683;27;19924;-72
2022/03/24 14:07:33;;;;;;;;;;;;;;;17.10;21.15;98844.31;5113782;27;19923;-72
2022/03/24 14:10:01;;;;;;;;;;;;;;;16.86;20.91;98851.22;5108205;27;19927;-72
2022/03/24 14:12:29;;;;;;;;;;;;;;;16.71;20.95;98835.28;5095537;27;19923;-72
2022/03/24 14:14:57;;;;;;;;;;;;;;;17.08;21.30;98841.09;5103610;27;19923;-73
2022/03/24 14:17:26;;;;;;;;;;;;;;;16.99;21.06;98839.22;5122758;27;19929;-73
2022/03/24 14:19:58;;;;;;;;;;;;;;;17.09;20.83;98828.97;5104958;27;19960;-73
2022/03/24 14:22:29;;;;;;;;;;;;;;;17.12;21.33;98837.38;5119366;27;19923;-72
2022/03/24 14:24:57;;;;;;;;;;;;;;;17.12;21.67;98822.84;5110558;27;19923;-73
2022/03/24 14:27:25;;;;;;;;;;;;;;;17.12;21.67;98829.13;5087719;27;20014;-73
2022/03/24 14:30:01;;;;;;;;;;;;;;;17.10;21.26;98823.16;5093846;27;19923;-72
2022/03/24 14:32:31;;;;;;;;;;;;;;;17.05;21.39;98828.84;5107555;27;20449;-73
2022/03/24 14:35:11;;;;;;;;;;;;;;;17.34;21.88;98811.53;5106211;27;20426;-72
2022/03/24 14:37:41;;;;;;;;;;;;;;;17.44;21.37;98818.59;5094875;27;19927;-73
2022/03/24 14:40:09;;;;;;;;;;;;;;;17.34;21.36;98813.47;5099949;27;19924;-72
2022/03/24 14:42:40;;;;;;;;;;;;;;;17.25;21.48;98810.78;5098178;27;20380;-73
2022/03/24 14:45:09;;;;;;;;;;;;;;;17.22;21.19;98812.25;5105248;27;19923;-73
2022/03/24 14:47:38;;;;;;;;;;;;;;;17.19;20.69;98801.94;5111032;27;19923;-73
2022/03/24 14:53:00;;;;;;;;;;;;;;;17.22;20.93;98800.47;5093923;27;19927;-72
2022/03/24 14:55:29;;;;;;;;;;;;;;;17.25;20.67;98805.28;5116345;27;20031;-72
2022/03/24 14:57:57;;;;;;;;;;;;;;;17.18;20.90;98808.56;5119066;27;19926;-72
2022/03/24 15:00:30;;;;;;;;;;;;;;;17.39;20.10;98799.56;5117040;27;19969;-72
2022/03/24 15:02:59;;;;;;;;;;;;;;;17.25;19.52;98800.59;5116148;27;19923;-72
2022/03/24 15:05:27;;;;;;;;;;;;;;;17.44;20.32;98791.91;5099709;27;19931;-72
2022/03/24 15:07:55;;;;;;;;;;;;;;;17.57;20.35;98801.00;5111520;27;19931;-73
2022/03/24 15:10:25;;;;;;;;;;;;;;;17.41;20.16;98800.00;5113794;27;20012;-72
2022/03/24 15:12:53;;;;;;;;;;;;;;;17.26;20.50;98793.19;5101131;27;19930;-72
2022/03/24 15:18:07;;;;;;;;;;;;;;;17.45;19.64;98798.22;5114200;27;19992;-72
2022/03/24 15:20:36;;;;;;;;;;;;;;;17.33;19.58;98784.41;5109326;28;19923;-72
2022/03/24 15:23:04;;;;;;;;;;;;;;;17.34;19.45;98784.06;5103616;27;19923;-72
2022/03/24 15:25:35;;;;;;;;;;;;;;;17.22;19.71;98784.00;5106987;27;19927;-72
2022/03/24 15:28:03;;;;;;;;;;;;;;;17.37;19.49;98779.88;5109223;28;19951;-72
2022/03/24 15:30:31;;;;;;;;;;;;;;;17.38;20.08;98781.47;5114240;27;19923;-73
2022/03/24 15:32:59;;;;;;;;;;;;;;;17.40;19.97;98784.69;5115256;28;20060;-72
2022/03/24 15:35:28;;;;;;;;;;;;;;;17.36;19.55;98778.22;5118933;27;20026;-72
2022/03/24 15:37:57;;;;;;;;;;;;;;;17.27;19.38;98787.34;5126075;28;20027;-73
2022/03/24 15:40:26;;;;;;;;;;;;;;;17.22;19.33;98778.50;5110680;27;19929;-73
2022/03/24 15:42:57;;;;;;;;;;;;;;;17.25;19.44;98786.88;5112413;28;19928;-72
2022/03/24 15:45:27;;;;;;;;;;;;;;;17.22;20.16;98784.81;5113352;27;19923;-74
2022/03/24 15:50:49;;;;;;;;;;;;;;;17.25;20.28;98778.63;5106343;27;19927;-73
2022/03/24 15:53:18;;;;;;;;;;;;;;;17.25;20.34;98775.88;5105176;27;19947;-72
2022/03/24 15:55:46;;;;;;;;;;;;;;;17.23;20.02;98782.88;5118423;27;19923;-72
2022/03/24 15:58:20;;;;;;;;;;;;;;;17.26;20.39;98783.00;5117344;27;20418;-73
2022/03/24 16:00:55;;;;;;;;;;;;;;;17.20;19.69;98784.31;5113475;28;20277;-73
2022/03/24 16:03:23;;;;;;;;;;;;;;;17.15;20.06;98784.53;5106769;28;19959;-76
2022/03/24 16:05:51;;;;;;;;;;;;;;;17.13;19.80;98789.53;5151768;27;19970;-69
2022/03/24 16:08:20;;;;;;;;;;;;;;;17.17;20.04;98789.69;5107168;27;19928;-70
2022/03/24 16:10:50;;;;;;;;;;;;;;;17.07;20.19;98790.88;5104728;27;19927;-70
2022/03/24 16:13:21;;;;;;;;;;;;;;;17.03;20.37;98784.44;5124494;27;19924;-70
2022/03/24 16:15:50;;;;;;;;;;;;;;;16.98;20.24;98790.13;5091366;27;20042;-70
2022/03/24 16:18:19;;;;;;;;;;;;;;;16.96;20.68;98792.41;5108413;27;19934;-71
2022/03/24 16:20:47;;;;;;;;;;;;;;;16.91;20.17;98796.13;5112728;27;19923;-70
2022/03/24 16:23:16;;;;;;;;;;;;;;;16.88;20.70;98793.25;5107264;27;19923;-75
2022/03/24 16:25:44;;;;;;;;;;;;;;;16.84;20.21;98792.31;5107562;27;19949;-74
2022/03/24 16:28:13;;;;;;;;;;;;;;;16.79;20.27;98789.75;5102061;27;19932;-74
2022/03/24 16:30:42;;;;;;;;;;;;;;;16.84;20.29;98792.31;5105317;27;19931;-74
2022/03/24 16:33:11;;;;;;;;;;;;;;;16.77;20.15;98790.88;5106655;27;19975;-75
2022/03/24 16:35:40;;;;;;;;;;;;;;;16.73;20.24;98789.94;5105532;27;19970;-74
2022/03/24 16:38:08;;;;;;;;;;;;;;;16.70;19.94;98789.75;5115387;27;19927;-74
2022/03/24 16:40:36;;;;;;;;;;;;;;;16.69;21.16;98788.97;5122273;27;20018;-74
2022/03/24 16:43:04;;;;;;;;;;;;;;;16.55;20.47;98782.88;5107787;27;20426;-74
2022/03/24 16:45:33;;;;;;;;;;;;;;;16.47;20.65;98789.22;5101067;27;19935;-76
2022/03/24 16:48:04;;;;;;;;;;;;;;;16.42;20.52;98797.63;5134730;27;19931;-72
2022/03/24 16:50:33;;;;;;;;;;;;;;;16.31;21.12;98788.16;5116633;27;20014;-73
2022/03/24 16:53:02;;;;;;;;;;;;;;;16.26;21.29;98794.63;5109740;27;19923;-74
2022/03/24 16:55:34;;;;;;;;;;;;;;;16.23;21.10;98793.31;5118451;27;19969;-72
2022/03/24 16:58:05;;;;;;;;;;;;;;;16.16;21.83;98786.72;5116020;27;20018;-76
2022/03/24 17:00:34;;;;;;;;;;;;;;;16.10;22.30;98785.31;5113505;27;19927;-71
2022/03/24 17:03:08;;;;;;;;;;;;;;;16.04;21.90;98795.63;5102137;27;19930;-73
2022/03/24 17:05:38;;;;;;;;;;;;;;;16.07;22.78;98792.22;5145028;27;20364;-73
2022/03/24 17:08:07;;;;;;;;;;;;;;;15.79;22.47;98788.25;5117043;27;20330;-75
2022/03/24 17:10:35;;;;;;;;;;;;;;;15.81;22.43;98785.97;5113891;27;19927;-77
2022/03/24 17:13:03;;;;;;;;;;;;;;;15.82;23.43;98793.06;5111729;27;20012;-72
2022/03/24 17:15:32;;;;;;;;;;;;;;;15.89;25.07;98791.47;5118369;27;19924;-75
2022/03/24 17:18:00;;;;;;;;;;;;;;;15.85;23.19;98792.44;5121818;27;20314;-74
2022/03/24 17:20:32;;;;;;;;;;;;;;;15.77;23.36;98793.25;5115189;27;19939;-75
2022/03/24 17:23:00;;;;;;;;;;;;;;;15.70;23.99;98789.06;5109006;27;20356;-75
2022/03/24 17:25:29;;;;;;;;;;;;;;;15.65;24.30;98786.47;5124406;27;19930;-74
2022/03/24 17:27:57;;;;;;;;;;;;;;;15.70;23.71;98796.47;5110715;27;19970;-74
2022/03/24 17:30:25;;;;;;;;;;;;;;;15.61;24.53;98788.25;5118037;27;19923;-73
2022/03/24 17:32:54;;;;;;;;;;;;;;;15.61;25.81;98792.91;5128397;27;20007;-75
2022/03/24 17:35:22;;;;;;;;;;;;;;;15.54;25.45;98800.78;5100409;27;20304;-77
2022/03/24 17:37:53;;;;;;;;;;;;;;;15.43;25.30;98801.09;5104707;27;19924;-77
2022/03/24 17:40:22;;;;;;;;;;;;;;;15.39;25.37;98807.53;5115227;27;19935;-73
2022/03/24 17:42:54;;;;;;;;;;;;;;;15.29;25.42;98808.69;5122341;27;19923;-72
2022/03/24 17:45:29;;;;;;;;;;;;;;;15.30;25.46;98804.81;5159549;27;19968;-78
2022/03/24 17:48:27;;;;;;;;;;;;;;;15.24;26.21;98810.78;5149613;27;19923;-80
2022/03/24 17:51:19;;;;;;;;;;;;;;;15.15;26.09;98808.00;5166735;27;19924;-77
2022/03/24 18:01:38;;;;;;;;;;;;;;;14.66;27.13;98813.50;5146407;27;19907;-80
2022/03/24 18:11:38;;;;;;;;;;;;;;;14.28;27.08;98812.34;5106774;28;19967;-80
2022/03/24 18:18:22;;;;;;;;;;;;;;;13.99;28.12;98821.00;5108525;28;19931;-79
2022/03/24 18:21:28;;;;;;;;;;;;;;;13.88;28.39;98817.69;5121341;28;20411;-78
2022/03/24 18:23:56;;;;;;;;;;;;;;;13.92;28.51;98821.44;5101228;27;19924;-78
2022/03/24 18:26:28;;;;;;;;;;;;;;;13.70;29.27;98818.69;5118951;28;19931;-80
2022/03/24 18:32:36;;;;;;;;;;;;;;;13.43;29.73;98823.13;5098665;28;19980;-79
2022/03/24 18:35:08;;;;;;;;;;;;;;;13.26;29.89;98826.53;5100452;28;20388;-78
2022/03/24 18:37:44;;;;;;;;;;;;;;;13.13;30.33;98823.78;5115199;27;19931;-79
2022/03/24 21:55:35;;;;;;;;;;;;;;;9.81;36.90;98885.56;4990912;28;19977;-79
2022/03/24 21:58:06;;;;;;;;;;;;;;;9.77;37.04;98884.50;4952527;29;20001;-79
2022/03/24 22:00:41;;;;;;;;;;;;;;;9.52;37.48;98890.06;4957054;28;19926;-79
2022/03/24 22:03:14;;;;;;;;;;;;;;;9.38;38.09;98890.69;4975464;28;19926;-79
2022/03/24 22:06:14;;;;;;;;;;;;;;;9.30;38.36;98891.28;4992317;28;19934;-81
2022/03/24 22:16:58;;;;;;;;;;;;;;;9.17;38.68;98900.03;4971023;28;20081;-80
2022/03/24 22:19:37;;;;;;;;;;;;;;;9.61;37.93;98897.34;4957226;29;19930;-81
2022/03/24 22:46:45;;;;;;;;;;;;;;;9.02;38.74;98913.63;5065358;28;19940;-80
2022/03/24 22:49:18;;;;;;;;;;;;;;;9.35;38.04;98907.50;5059081;28;19917;-81
2022/03/24 22:53:09;;;;;;;;;;;;;;;9.33;38.22;98908.91;5065102;28;19924;-81
2022/03/24 23:07:26;;;;;;;;;;;;;;;8.90;39.02;98905.81;5057388;28;19908;-81
2022/03/24 23:11:59;;;;;;;;;;;;;;;8.78;39.19;98908.81;5055293;28;19929;-81
2022/03/24 23:19:01;;;;;;;;;;;;;;;8.91;39.56;98910.94;5038554;28;19960;-81
